Time;durP1;ratioP1;P1;durP2;ratioP2;P2;SDS_P1;SDS_P2;PMS_P1;PMS_P2;Temp;Humidity;BMP_temperature;BMP_pressure;BME280_temperature;BME280_humidity;BME280_pressure;Samples;Min_cycle;Max_cycle;Signal;HPM_P1;HPM_P2
2022/04/02 00:00:14;;;;;;;9.30;8.30;;;2.40;99.90;;;;;;5131372;27;20481;-70
2022/04/02 00:02:41;;;;;;;9.87;8.23;;;2.50;99.90;;;;;;5128398;27;20493;-71
2022/04/02 00:05:09;;;;;;;10.50;9.10;;;2.40;99.90;;;;;;5123274;27;20450;-70
2022/04/02 00:07:36;;;;;;;10.20;8.10;;;2.60;99.90;;;;;;5131769;27;20461;-69
2022/04/02 00:10:05;;;;;;;11.50;9.47;;;2.80;99.90;;;;;;5131325;27;20938;-70
2022/04/02 00:12:33;;;;;;;9.50;8.03;;;2.70;99.90;;;;;;5131708;27;20813;-70
2022/04/02 00:15:00;;;;;;;10.33;8.10;;;2.80;99.90;;;;;;5131187;27;20573;-70
2022/04/02 00:17:27;;;;;;;10.97;8.23;;;2.60;99.90;;;;;;5118226;28;20454;-70
2022/04/02 00:19:55;;;;;;;11.40;9.10;;;3.40;99.90;;;;;;5131814;27;20458;-70
2022/04/02 00:22:22;;;;;;;12.23;9.63;;;3.30;99.90;;;;;;5108768;27;20457;-70
2022/04/02 00:24:49;;;;;;;11.27;8.90;;;2.70;99.90;;;;;;5135711;27;20500;-70
2022/04/02 00:27:15;;;;;;;13.87;10.00;;;3.30;99.90;;;;;;5135447;27;20849;-71
2022/04/02 00:29:44;;;;;;;10.80;8.10;;;2.50;99.90;;;;;;5135799;27;20445;-70
2022/04/02 00:32:11;;;;;;;13.47;10.07;;;2.70;99.90;;;;;;5135711;27;20446;-70
2022/04/02 00:34:38;;;;;;;12.40;10.13;;;4.10;99.90;;;;;;5130343;27;20569;-70
2022/04/02 00:37:05;;;;;;;12.50;9.90;;;2.60;99.90;;;;;;5127017;27;20483;-70
2022/04/02 00:39:32;;;;;;;12.70;10.27;;;2.60;99.90;;;;;;5130277;27;20486;-70
2022/04/02 00:41:58;;;;;;;13.27;9.90;;;2.60;99.90;;;;;;5135302;27;20491;-70
2022/04/02 00:44:26;;;;;;;14.33;10.13;;;2.60;99.90;;;;;;5135917;27;20785;-71
2022/04/02 00:46:55;;;;;;;12.57;10.20;;;2.80;99.90;;;;;;5136104;27;20869;-70
2022/04/02 00:49:22;;;;;;;12.90;9.63;;;2.60;99.90;;;;;;5135406;27;20455;-71
2022/04/02 00:51:51;;;;;;;10.33;9.07;;;2.70;99.90;;;;;;5136149;27;20474;-70
2022/04/02 00:54:19;;;;;;;13.20;10.00;;;3.40;99.90;;;;;;5134623;27;20537;-69
2022/04/02 00:56:47;;;;;;;12.70;9.40;;;3.00;99.90;;;;;;5135452;27;20990;-70
2022/04/02 00:59:14;;;;;;;10.70;8.30;;;3.00;99.90;;;;;;5134749;27;20509;-70
2022/04/02 01:01:41;;;;;;;10.80;8.90;;;3.00;99.90;;;;;;5135563;27;20446;-70
2022/04/02 01:04:10;;;;;;;9.83;8.83;;;2.80;99.90;;;;;;5122428;27;21002;-70
2022/04/02 01:06:38;;;;;;;11.80;9.33;;;2.80;99.90;;;;;;5135295;27;20994;-70
2022/04/02 01:09:04;;;;;;;11.90;9.17;;;3.00;99.90;;;;;;5134868;27;20541;-70
2022/04/02 01:11:39;;;;;;;12.83;9.90;;;3.00;99.90;;;;;;5135231;27;20515;-69
2022/04/02 01:14:06;;;;;;;12.47;9.10;;;3.00;99.90;;;;;;5134443;27;20492;-70
2022/04/02 01:16:33;;;;;;;10.93;9.30;;;3.30;99.90;;;;;;5135375;27;20503;-70
2022/04/02 01:19:01;;;;;;;12.20;8.97;;;3.10;99.90;;;;;;5134696;27;20500;-69
2022/04/02 01:21:30;;;;;;;11.10;9.13;;;3.00;99.90;;;;;;5135575;27;20811;-70
2022/04/02 01:24:00;;;;;;;11.57;8.97;;;4.50;99.90;;;;;;5107494;27;20443;-70
2022/04/02 01:26:27;;;;;;;10.77;9.37;;;2.90;99.90;;;;;;5135264;27;20538;-70
2022/04/02 01:28:56;;;;;;;11.50;9.03;;;2.90;99.90;;;;;;5135144;27;20445;-70
2022/04/02 01:31:24;;;;;;;10.40;8.47;;;2.80;99.90;;;;;;5134636;27;20526;-70
2022/04/02 01:33:52;;;;;;;11.80;9.47;;;2.80;99.90;;;;;;5129587;27;20958;-70
2022/04/02 01:36:20;;;;;;;10.80;9.00;;;3.60;99.90;;;;;;5132408;27;20485;-70
2022/04/02 01:38:48;;;;;;;11.07;9.27;;;2.90;99.90;;;;;;5123385;27;20584;-69
2022/04/02 01:41:16;;;;;;;13.33;10.60;;;2.70;99.90;;;;;;5133901;27;20537;-70
2022/04/02 01:43:44;;;;;;;10.97;8.60;;;2.80;99.90;;;;;;5134804;27;20446;-70
2022/04/02 01:46:11;;;;;;;10.53;9.07;;;4.00;99.90;;;;;;5134871;27;20503;-70
2022/04/02 01:48:38;;;;;;;15.50;9.50;;;2.90;99.90;;;;;;5136924;27;20511;-69
2022/04/02 01:51:06;;;;;;;11.27;8.63;;;3.10;99.90;;;;;;5136684;27;20529;-69
2022/04/02 01:53:33;;;;;;;14.37;8.97;;;3.00;99.90;;;;;;5137235;27;20460;-70
2022/04/02 01:56:00;;;;;;;17.70;8.57;;;3.90;99.90;;;;;;5135824;27;20554;-70
2022/04/02 01:58:28;;;;;;;13.23;9.10;;;2.90;99.90;;;;;;5136450;27;20447;-69
2022/04/02 02:00:56;;;;;;;9.73;7.60;;;2.80;99.90;;;;;;5135657;27;20447;-69
2022/04/02 02:03:24;;;;;;;11.27;7.53;;;2.70;99.90;;;;;;5125142;27;20444;-69
2022/04/02 02:05:51;;;;;;;9.67;8.70;;;3.40;99.90;;;;;;5131637;27;20505;-70
2022/04/02 02:08:18;;;;;;;11.03;8.90;;;2.90;99.90;;;;;;5133930;27;20457;-70
2022/04/02 02:10:47;;;;;;;12.80;9.30;;;3.00;99.90;;;;;;5134287;27;20534;-70
2022/04/02 02:13:14;;;;;;;9.00;7.80;;;3.00;99.90;;;;;;5134118;27;20451;-70
2022/04/02 02:15:42;;;;;;;10.90;8.53;;;2.90;99.90;;;;;;5133671;27;20478;-70
2022/04/02 02:18:09;;;;;;;9.43;7.60;;;3.00;99.90;;;;;;5133685;27;20450;-70
2022/04/02 02:20:36;;;;;;;9.90;7.83;;;3.00;99.90;;;;;;5133995;27;20443;-70
2022/04/02 02:23:02;;;;;;;12.00;9.57;;;3.10;99.90;;;;;;5133101;27;20479;-70
2022/04/02 02:25:29;;;;;;;9.93;8.20;;;3.10;99.90;;;;;;5133507;27;20525;-70
2022/04/02 02:27:56;;;;;;;10.13;8.87;;;3.10;99.90;;;;;;5133589;27;20522;-70
2022/04/02 02:30:23;;;;;;;10.40;7.67;;;2.90;99.90;;;;;;5134071;27;20503;-70
2022/04/02 02:35:49;;;;;;;8.83;7.80;;;2.90;99.90;;;;;;5129133;27;20454;-70
2022/04/02 02:35:49;;;;;;;9.23;5.93;;;4.20;99.90;;;;;;5108989;27;20462;-70
2022/04/02 02:38:16;;;;;;;11.27;7.53;;;3.80;99.90;;;;;;5118877;27;20571;-70
2022/04/02 02:40:43;;;;;;;7.40;6.50;;;2.80;99.90;;;;;;5133959;27;20450;-70
2022/04/02 02:43:10;;;;;;;9.13;7.30;;;2.80;99.90;;;;;;5132737;27;20443;-70
2022/04/02 02:45:37;;;;;;;8.63;7.73;;;3.00;99.90;;;;;;5133020;27;20934;-70
2022/04/02 02:48:06;;;;;;;7.73;6.93;;;3.10;99.90;;;;;;5132663;27;20438;-70
2022/04/02 02:50:33;;;;;;;8.00;6.73;;;3.10;99.90;;;;;;5133419;27;20801;-70
2022/04/02 02:53:00;;;;;;;7.13;6.40;;;3.00;99.90;;;;;;5112736;27;20533;-69
2022/04/02 02:55:28;;;;;;;8.67;7.30;;;4.30;99.90;;;;;;5110285;27;20479;-69
2022/04/02 02:57:55;;;;;;;7.00;6.17;;;3.00;99.90;;;;;;5129630;27;20451;-70
2022/04/02 03:00:23;;;;;;;7.93;6.40;;;2.90;99.90;;;;;;5125594;27;20458;-70
2022/04/02 03:02:50;;;;;;;7.47;6.67;;;3.00;99.90;;;;;;5112078;27;20540;-70
2022/04/02 03:05:18;;;;;;;8.13;6.97;;;3.00;99.90;;;;;;5120394;27;20485;-69
2022/04/02 03:07:49;;;;;;;8.97;6.33;;;2.90;99.90;;;;;;5128615;27;20486;-71
2022/04/02 03:10:17;;;;;;;8.43;6.60;;;2.90;99.90;;;;;;5127512;27;20701;-70
2022/04/02 03:12:44;;;;;;;8.90;6.97;;;2.90;99.90;;;;;;5119382;27;20451;-70
2022/04/02 03:15:12;;;;;;;8.93;7.30;;;2.90;99.90;;;;;;5115654;27;20455;-71
2022/04/02 03:17:39;;;;;;;7.77;6.77;;;3.10;99.90;;;;;;5129899;27;20455;-70
2022/04/02 03:20:07;;;;;;;9.10;6.27;;;3.40;99.90;;;;;;5118582;27;20444;-70
2022/04/02 03:22:39;;;;;;;6.93;6.23;;;3.00;99.90;;;;;;5106636;27;20450;-70
2022/04/02 03:25:08;;;;;;;13.00;8.43;;;3.10;99.90;;;;;;5126075;27;20450;-73
2022/04/02 03:27:36;;;;;;;11.33;7.00;;;3.00;99.90;;;;;;5119414;27;20446;-69
2022/04/02 03:30:03;;;;;;;9.30;6.10;;;3.10;99.90;;;;;;5128514;27;20453;-69
2022/04/02 03:32:30;;;;;;;7.43;6.27;;;3.10;99.90;;;;;;5127138;27;20447;-69
2022/04/02 03:34:57;;;;;;;9.50;6.30;;;3.20;99.90;;;;;;5125955;27;20475;-68
2022/04/02 03:37:25;;;;;;;8.57;6.27;;;2.80;99.90;;;;;;5113458;27;20483;-68
2022/04/02 03:39:54;;;;;;;7.93;6.60;;;2.90;99.90;;;;;;5126910;27;20481;-67
2022/04/02 03:42:21;;;;;;;9.67;6.17;;;2.90;99.90;;;;;;5128580;27;20450;-67
2022/04/02 03:44:48;;;;;;;9.07;6.17;;;3.00;99.90;;;;;;5128464;27;20444;-67
2022/04/02 03:47:15;;;;;;;9.50;6.30;;;2.90;99.90;;;;;;5121982;27;20850;-68
2022/04/02 03:49:45;;;;;;;6.13;5.53;;;2.60;99.90;;;;;;5127215;27;20538;-68
2022/04/02 03:52:13;;;;;;;15.80;6.33;;;4.20;99.90;;;;;;5126248;27;20976;-69
2022/04/02 03:54:40;;;;;;;7.27;5.87;;;2.70;99.90;;;;;;5128312;27;20473;-67
2022/04/02 03:57:10;;;;;;;12.33;6.20;;;2.80;99.90;;;;;;5127545;27;20593;-75
2022/04/02 03:59:37;;;;;;;6.07;5.07;;;2.80;99.90;;;;;;5116517;27;20510;-67
2022/04/02 04:02:05;;;;;;;15.60;6.03;;;3.00;99.90;;;;;;5119101;27;20487;-69
2022/04/02 04:04:32;;;;;;;7.70;5.87;;;2.70;99.90;;;;;;5116460;27;20537;-69
2022/04/02 04:06:59;;;;;;;8.43;6.17;;;3.00;99.90;;;;;;5127437;27;20477;-70
2022/04/02 04:09:27;;;;;;;5.77;5.20;;;2.80;99.90;;;;;;5130006;27;20458;-70
2022/04/02 04:11:54;;;;;;;5.57;4.90;;;2.60;99.90;;;;;;5126051;27;20488;-69
2022/04/02 04:14:24;;;;;;;7.07;5.73;;;3.10;99.90;;;;;;5116907;27;20871;-70
2022/04/02 04:16:51;;;;;;;8.13;4.77;;;3.00;99.90;;;;;;5123495;27;20483;-70
2022/04/02 04:19:18;;;;;;;9.90;6.50;;;2.60;99.90;;;;;;5128582;27;20464;-69
2022/04/02 04:21:46;;;;;;;10.77;5.70;;;2.60;99.90;;;;;;5126706;27;20459;-71
2022/04/02 04:24:15;;;;;;;10.80;5.77;;;2.40;99.90;;;;;;5125773;27;20973;-69
2022/04/02 04:26:42;;;;;;;6.20;4.40;;;2.40;99.90;;;;;;5113463;28;20451;-69
2022/04/02 04:29:09;;;;;;;6.47;5.20;;;2.50;99.90;;;;;;5120871;27;21209;-69
2022/04/02 04:31:38;;;;;;;9.53;5.17;;;2.50;99.90;;;;;;5121783;28;20465;-69
2022/04/02 04:34:05;;;;;;;7.03;6.30;;;3.00;99.90;;;;;;5119211;27;20545;-69
2022/04/02 04:36:33;;;;;;;6.53;4.70;;;2.60;99.90;;;;;;5117791;28;20570;-70
2022/04/02 04:39:00;;;;;;;5.47;4.50;;;2.90;99.90;;;;;;5119201;28;20522;-69
2022/04/02 04:41:27;;;;;;;7.80;5.47;;;2.90;99.90;;;;;;5123178;27;20439;-69
2022/04/02 04:43:54;;;;;;;7.93;5.90;;;2.70;99.90;;;;;;5128024;27;20522;-69
2022/04/02 04:46:21;;;;;;;8.27;5.70;;;2.70;99.90;;;;;;5120861;28;20466;-69
2022/04/02 04:48:50;;;;;;;10.70;6.13;;;3.40;99.90;;;;;;5126441;27;20449;-69
2022/04/02 04:51:18;;;;;;;7.40;6.00;;;4.10;99.90;;;;;;5128050;27;20965;-70
2022/04/02 04:53:46;;;;;;;6.90;6.17;;;2.80;99.90;;;;;;5118991;27;20456;-70
2022/04/02 04:56:13;;;;;;;7.23;5.90;;;2.80;99.90;;;;;;5126867;28;20518;-70
2022/04/02 04:58:39;;;;;;;6.10;5.50;;;2.60;99.90;;;;;;5128578;27;20478;-69
2022/04/02 05:01:08;;;;;;;8.07;6.20;;;3.40;99.90;;;;;;5128461;27;20446;-69
2022/04/02 05:03:35;;;;;;;11.30;7.40;;;2.60;99.90;;;;;;5117324;27;20466;-69
2022/04/02 05:06:05;;;;;;;7.80;6.17;;;2.50;99.90;;;;;;5127643;28;20533;-70
2022/04/02 05:08:33;;;;;;;8.50;6.07;;;2.50;99.90;;;;;;5132295;27;20500;-70
2022/04/02 05:11:01;;;;;;;7.53;5.73;;;2.40;99.90;;;;;;5129377;27;20438;-70
2022/04/02 05:13:28;;;;;;;8.80;6.20;;;2.40;99.90;;;;;;5123087;27;20447;-69
2022/04/02 05:15:55;;;;;;;10.20;7.13;;;2.40;99.90;;;;;;5131863;27;20465;-69
2022/04/02 05:18:23;;;;;;;10.80;6.30;;;2.50;99.90;;;;;;5132564;27;20485;-70
2022/04/02 05:20:50;;;;;;;9.30;7.20;;;2.70;99.90;;;;;;5125269;27;20515;-70
2022/04/02 05:23:18;;;;;;;9.20;6.03;;;2.70;99.90;;;;;;5119665;27;20450;-71
2022/04/02 05:25:45;;;;;;;9.03;7.53;;;2.80;99.90;;;;;;5131750;27;20481;-71
2022/04/02 05:28:12;;;;;;;6.80;5.90;;;2.60;99.90;;;;;;5131355;27;20479;-71
2022/04/02 05:30:39;;;;;;;7.90;6.10;;;2.40;99.90;;;;;;5125885;27;20447;-69
2022/04/02 05:33:07;;;;;;;6.30;5.30;;;3.10;99.90;;;;;;5123136;27;20959;-68
2022/04/02 05:35:34;;;;;;;7.40;6.00;;;2.60;99.90;;;;;;5131063;27;20478;-69
2022/04/02 05:38:01;;;;;;;7.03;5.47;;;2.60;99.90;;;;;;5117286;27;20582;-68
2022/04/02 05:40:29;;;;;;;6.30;5.70;;;3.40;99.90;;;;;;5127575;27;20525;-68
2022/04/02 05:42:57;;;;;;;6.33;5.50;;;2.80;99.90;;;;;;5125140;27;21045;-70
2022/04/02 05:45:24;;;;;;;6.87;6.17;;;2.70;99.90;;;;;;5131337;27;20450;-69
2022/04/02 05:47:53;;;;;;;5.87;5.00;;;2.70;99.90;;;;;;5129433;27;21070;-69
2022/04/02 05:50:22;;;;;;;6.47;4.90;;;2.60;99.90;;;;;;5127691;27;20850;-69
2022/04/02 05:52:50;;;;;;;5.87;5.30;;;2.60;99.90;;;;;;5129424;27;20459;-70
2022/04/02 05:55:18;;;;;;;7.10;5.57;;;2.40;99.90;;;;;;5130390;27;20446;-68
2022/04/02 05:57:47;;;;;;;8.17;6.07;;;2.50;99.90;;;;;;5131782;27;20485;-68
2022/04/02 06:00:16;;;;;;;6.80;6.03;;;2.60;99.90;;;;;;5129001;27;20439;-70
2022/04/02 06:02:44;;;;;;;5.93;4.90;;;2.60;99.90;;;;;;5126479;27;20458;-69
2022/04/02 06:05:13;;;;;;;7.40;5.73;;;2.60;99.90;;;;;;5121954;27;20456;-70
2022/04/02 06:07:41;;;;;;;6.97;5.37;;;2.50;99.90;;;;;;5131337;27;20458;-68
2022/04/02 06:10:10;;;;;;;6.23;5.13;;;2.30;99.90;;;;;;5129743;27;20458;-68
2022/04/02 06:12:38;;;;;;;5.80;5.20;;;2.30;99.90;;;;;;5127304;27;20965;-70
2022/04/02 06:15:09;;;;;;;7.37;5.60;;;2.70;99.90;;;;;;5129841;27;20450;-69
2022/04/02 06:17:37;;;;;;;6.07;4.50;;;2.40;99.90;;;;;;5130797;27;20475;-69
2022/04/02 06:20:06;;;;;;;8.83;4.87;;;2.50;99.90;;;;;;5127595;27;20447;-69
2022/04/02 06:22:33;;;;;;;8.80;5.50;;;2.30;99.90;;;;;;5119826;27;20930;-68
2022/04/02 06:25:00;;;;;;;5.73;5.23;;;2.50;99.90;;;;;;5130134;27;20546;-69
2022/04/02 06:27:27;;;;;;;5.90;5.30;;;2.40;99.90;;;;;;5130263;27;20545;-68
2022/04/02 06:29:54;;;;;;;6.80;5.37;;;2.30;99.90;;;;;;5130122;27;20529;-69
2022/04/02 06:32:23;;;;;;;9.10;5.97;;;2.40;99.90;;;;;;5130652;27;20454;-68
2022/04/02 06:34:50;;;;;;;5.77;5.07;;;3.40;99.90;;;;;;5126282;27;20846;-70
2022/04/02 06:37:16;;;;;;;7.47;4.80;;;2.40;99.90;;;;;;5109360;27;20475;-70
2022/04/02 06:39:44;;;;;;;5.50;4.93;;;2.50;99.90;;;;;;5126757;27;20479;-70
2022/04/02 06:42:12;;;;;;;6.70;4.47;;;2.60;99.90;;;;;;5130406;27;20443;-71
2022/04/02 06:44:39;;;;;;;6.87;5.10;;;2.70;99.90;;;;;;5130520;27;20952;-70
2022/04/02 06:47:06;;;;;;;5.13;4.50;;;2.50;99.90;;;;;;5129459;27;20549;-70
2022/04/02 06:49:35;;;;;;;7.87;6.13;;;2.90;99.90;;;;;;5125360;27;20948;-70
2022/04/02 06:52:03;;;;;;;6.90;4.80;;;2.80;99.90;;;;;;5129783;27;20447;-70
2022/04/02 06:54:30;;;;;;;7.93;4.60;;;3.00;99.90;;;;;;5129632;27;20458;-70
2022/04/02 06:56:57;;;;;;;5.97;4.80;;;2.50;99.90;;;;;;5125801;27;20823;-69
2022/04/02 06:59:24;;;;;;;4.90;4.40;;;2.60;99.90;;;;;;5130090;27;20486;-68
2022/04/02 07:01:51;;;;;;;4.83;4.30;;;2.80;99.90;;;;;;5122891;27;20518;-68
2022/04/02 07:04:18;;;;;;;5.20;4.27;;;2.60;99.90;;;;;;5118470;27;20455;-69
2022/04/02 07:06:46;;;;;;;5.03;4.53;;;2.40;99.90;;;;;;5125349;27;20871;-68
2022/04/02 07:09:14;;;;;;;4.83;4.40;;;2.60;99.90;;;;;;5129717;27;20472;-68
2022/04/02 07:11:42;;;;;;;6.13;4.93;;;2.80;99.90;;;;;;5122877;27;20454;-68
2022/04/02 07:14:09;;;;;;;5.23;4.60;;;2.90;99.90;;;;;;5129381;27;20451;-68
2022/04/02 07:16:37;;;;;;;5.50;4.83;;;2.70;99.90;;;;;;5127088;27;20875;-67
2022/04/02 07:19:04;;;;;;;7.70;5.73;;;2.70;99.90;;;;;;5126908;27;20453;-68
2022/04/02 07:21:32;;;;;;;5.70;5.10;;;2.80;99.90;;;;;;5117556;27;20485;-69
2022/04/02 07:24:01;;;;;;;5.63;4.20;;;2.90;99.90;;;;;;5124643;27;20529;-68
2022/04/02 07:26:28;;;;;;;5.03;3.80;;;2.70;99.90;;;;;;5129572;27;20533;-69
2022/04/02 07:28:55;;;;;;;5.60;5.00;;;2.70;99.90;;;;;;5122615;27;20443;-69
2022/04/02 07:31:22;;;;;;;8.77;3.97;;;2.60;99.90;;;;;;5124725;27;20446;-69
2022/04/02 07:33:49;;;;;;;4.83;4.40;;;2.80;99.90;;;;;;5119695;27;20448;-69
2022/04/02 07:36:25;;;;;;;5.27;4.73;;;2.60;99.90;;;;;;5121415;27;20844;-69
2022/04/02 07:39:03;;;;;;;7.27;4.67;;;2.60;99.90;;;;;;5116421;27;21047;-70
2022/04/02 07:41:37;;;;;;;8.10;5.63;;;2.60;99.90;;;;;;5129566;27;20923;-69
2022/04/02 07:44:08;;;;;;;5.00;4.50;;;2.60;99.90;;;;;;5128513;27;20446;-69
2022/04/02 07:46:41;;;;;;;7.83;5.13;;;2.70;99.90;;;;;;5129437;27;20458;-69
2022/04/02 07:49:12;;;;;;;4.90;4.10;;;3.00;99.90;;;;;;5121185;27;20454;-69
2022/04/02 07:51:40;;;;;;;5.00;4.37;;;2.80;99.90;;;;;;5130184;27;20571;-70
2022/04/02 07:54:13;;;;;;;6.13;4.43;;;2.80;99.90;;;;;;5123244;27;20450;-68
2022/04/02 07:56:46;;;;;;;5.87;3.67;;;2.90;99.90;;;;;;5130432;27;20468;-68
2022/04/02 07:59:19;;;;;;;5.97;3.80;;;2.70;99.90;;;;;;5129154;27;20475;-69
2022/04/02 08:01:50;;;;;;;5.80;4.17;;;3.00;99.90;;;;;;5129686;27;20442;-69
2022/04/02 08:04:21;;;;;;;7.93;4.73;;;2.50;99.90;;;;;;5117157;27;20985;-69
2022/04/02 08:06:49;;;;;;;4.97;4.30;;;2.60;99.90;;;;;;5125576;27;20457;-70
2022/04/02 08:09:20;;;;;;;4.97;4.17;;;2.70;99.90;;;;;;5124984;27;20498;-70
2022/04/02 08:11:49;;;;;;;4.43;4.03;;;2.70;99.90;;;;;;5127704;27;20481;-69
2022/04/02 08:14:18;;;;;;;5.53;4.60;;;2.80;99.90;;;;;;5126118;27;20697;-69
2022/04/02 08:16:45;;;;;;;6.27;4.50;;;2.80;99.90;;;;;;5128177;27;20533;-69
2022/04/02 08:19:12;;;;;;;5.00;4.23;;;2.70;99.90;;;;;;5121987;27;20529;-70
2022/04/02 08:21:39;;;;;;;4.50;4.10;;;2.60;99.90;;;;;;5128816;28;20444;-69
2022/04/02 08:24:07;;;;;;;6.10;4.37;;;2.80;99.90;;;;;;5128026;27;20981;-69
2022/04/02 08:26:44;;;;;;;5.00;4.50;;;2.80;99.90;;;;;;5129331;27;20450;-69
2022/04/02 08:29:26;;;;;;;8.60;5.87;;;3.00;99.90;;;;;;5120791;27;20849;-70
2022/04/02 08:32:03;;;;;;;5.90;4.97;;;2.50;99.90;;;;;;5127360;28;20560;-69
2022/04/02 08:35:06;;;;;;;6.63;5.20;;;2.60;99.90;;;;;;5124003;27;20525;-70
2022/04/02 08:37:50;;;;;;;5.13;4.33;;;2.70;99.90;;;;;;5107926;27;20790;-69
2022/04/02 08:40:38;;;;;;;5.60;4.57;;;3.00;99.90;;;;;;5127244;28;20489;-69
2022/04/02 08:43:39;;;;;;;5.30;4.40;;;2.90;99.90;;;;;;5130703;27;20804;-69
2022/04/02 08:46:18;;;;;;;6.80;5.00;;;3.00;99.90;;;;;;5084575;27;20942;-69
2022/04/02 08:48:58;;;;;;;5.27;4.77;;;3.30;99.90;;;;;;5129672;27;20450;-71
2022/04/02 08:51:40;;;;;;;6.43;4.50;;;3.90;99.90;;;;;;5126645;27;20452;-71
2022/04/02 08:54:23;;;;;;;5.70;4.50;;;3.10;99.90;;;;;;5120887;27;20522;-68
2022/04/02 08:56:53;;;;;;;6.53;4.20;;;3.20;99.90;;;;;;5127232;27;20447;-70
2022/04/02 08:59:35;;;;;;;5.77;5.27;;;3.90;1.00;;;;;;5131287;27;20473;-68
2022/04/02 09:02:33;;;;;;;5.03;4.03;;;3.60;1.00;;;;;;5126691;27;20530;-70
2022/04/02 09:05:23;;;;;;;5.50;4.77;;;3.30;1.00;;;;;;5106909;27;20473;-70
2022/04/02 09:08:35;;;;;;;5.10;4.57;;;3.40;1.00;;;;;;5132700;27;20810;-68
2022/04/02 09:11:23;;;;;;;4.90;4.50;;;3.30;99.90;;;;;;5117624;27;20591;-69
2022/04/02 09:14:12;;;;;;;6.93;4.70;;;3.40;1.00;;;;;;5131440;27;20991;-68
2022/04/02 09:16:59;;;;;;;6.90;4.87;;;3.10;1.00;;;;;;5127670;27;20527;-69
2022/04/02 09:19:31;;;;;;;7.03;5.43;;;3.20;99.90;;;;;;5132318;27;20533;-69
2022/04/02 09:22:06;;;;;;;8.80;5.60;;;3.00;1.00;;;;;;5132035;27;20453;-69
2022/04/02 09:25:11;;;;;;;7.20;5.70;;;3.10;99.90;;;;;;5126211;27;20450;-68
2022/04/02 09:28:14;;;;;;;9.10;5.67;;;3.30;64.00;;;;;;5115596;27;20458;-69
2022/04/02 09:31:14;;;;;;;5.77;4.90;;;3.00;1.00;;;;;;5102286;27;20802;-70
2022/04/02 09:34:18;;;;;;;6.10;5.50;;;2.70;1.00;;;;;;5106323;27;21037;-71
2022/04/02 09:37:01;;;;;;;6.00;5.20;;;2.80;15.20;;;;;;5126435;27;20443;-69
2022/04/02 09:39:46;;;;;;;6.30;5.47;;;3.10;1.00;;;;;;5114967;27;20507;-69
2022/04/02 09:42:37;;;;;;;6.83;6.13;;;3.10;1.00;;;;;;5131355;27;20994;-69
2022/04/02 09:45:08;;;;;;;9.20;6.13;;;3.20;1.00;;;;;;5126557;27;20443;-68
2022/04/02 09:47:56;;;;;;;8.40;6.10;;;2.90;1.00;;;;;;5129261;27;20459;-68
2022/04/02 09:50:25;;;;;;;6.60;5.63;;;2.60;1.00;;;;;;5132253;27;20546;-68
2022/04/02 09:52:58;;;;;;;10.23;6.17;;;2.90;1.00;;;;;;5130367;27;20605;-69
2022/04/02 09:55:29;;;;;;;9.53;6.10;;;2.80;1.00;;;;;;5130993;27;20450;-69
2022/04/02 09:58:31;;;;;;;6.13;5.53;;;2.70;1.00;;;;;;5130614;27;20570;-68
2022/04/02 10:01:04;;;;;;;7.80;6.80;;;2.80;1.00;;;;;;5131139;27;20557;-69
2022/04/02 10:03:41;;;;;;;7.30;6.33;;;2.80;1.00;;;;;;5123567;27;20453;-69
2022/04/02 10:06:24;;;;;;;7.07;6.37;;;2.60;1.00;;;;;;5107278;27;20457;-69
2022/04/02 10:09:12;;;;;;;8.37;6.17;;;2.90;1.00;;;;;;5130911;27;20846;-70
2022/04/02 10:11:53;;;;;;;8.60;5.50;;;2.90;1.00;;;;;;5127882;27;20956;-70
2022/04/02 10:14:22;;;;;;;6.70;6.10;;;2.70;1.00;;;;;;5131067;27;20453;-68
2022/04/02 10:16:51;;;;;;;6.90;5.50;;;2.50;1.00;;;;;;5130632;27;20443;-68
2022/04/02 10:19:19;;;;;;;7.13;6.37;;;2.80;1.00;;;;;;5130317;27;20589;-70
2022/04/02 10:21:50;;;;;;;9.90;6.60;;;2.90;1.00;;;;;;5128464;27;20458;-69
2022/04/02 10:24:22;;;;;;;5.90;5.30;;;2.80;1.00;;;;;;5130677;27;20509;-69
2022/04/02 10:26:55;;;;;;;6.97;5.57;;;2.70;1.00;;;;;;5130429;27;20435;-68
2022/04/02 10:29:44;;;;;;;7.80;5.63;;;2.80;1.00;;;;;;5130568;27;20462;-68
2022/04/02 10:32:34;;;;;;;6.40;5.57;;;3.00;1.00;;;;;;5130228;27;21017;-69
2022/04/02 10:35:06;;;;;;;6.10;5.50;;;3.00;1.00;;;;;;5121188;27;20803;-69
2022/04/02 10:37:40;;;;;;;5.80;5.20;;;3.00;1.00;;;;;;5110816;27;20451;-70
2022/04/02 10:40:11;;;;;;;7.90;5.67;;;3.00;1.00;;;;;;5129239;27;20482;-70
2022/04/02 10:42:40;;;;;;;10.83;7.00;;;3.20;1.00;;;;;;5130532;27;20441;-69
2022/04/02 10:45:10;;;;;;;7.57;6.40;;;2.70;1.00;;;;;;5120712;27;20508;-69
2022/04/02 10:47:42;;;;;;;8.13;6.53;;;2.90;60.00;;;;;;5127942;27;20456;-69
2022/04/02 10:50:10;;;;;;;6.90;6.13;;;3.00;1.00;;;;;;5130048;27;20474;-69
2022/04/02 10:52:38;;;;;;;6.30;5.70;;;3.00;1.00;;;;;;5126516;27;20866;-69
2022/04/02 10:55:06;;;;;;;6.90;5.60;;;3.10;1.00;;;;;;5110188;27;20463;-69
2022/04/02 10:57:34;;;;;;;7.43;5.63;;;3.20;99.90;;;;;;5114941;27;20463;-69
2022/04/02 11:00:04;;;;;;;7.10;6.40;;;3.40;99.90;;;;;;5124624;27;20451;-69
2022/04/02 11:02:41;;;;;;;6.20;5.30;;;3.20;1.00;;;;;;5125793;27;20876;-69
2022/04/02 11:05:09;;;;;;;7.13;6.20;;;3.30;99.90;;;;;;5120150;27;20441;-69
2022/04/02 11:07:40;;;;;;;8.40;5.77;;;3.20;1.00;;;;;;5128068;27;20522;-68
2022/04/02 11:10:09;;;;;;;6.87;5.90;;;3.10;1.00;;;;;;5118732;27;20444;-68
2022/04/02 11:12:41;;;;;;;8.77;5.57;;;3.10;1.00;;;;;;5110309;27;20452;-68
2022/04/02 11:15:11;;;;;;;7.07;6.03;;;3.10;1.00;;;;;;5119289;27;20451;-67
2022/04/02 11:17:41;;;;;;;7.27;6.57;;;3.00;1.00;;;;;;5122868;27;20479;-68
2022/04/02 11:20:11;;;;;;;5.87;5.27;;;2.90;99.90;;;;;;5113724;27;20443;-69
2022/04/02 11:22:50;;;;;;;9.40;7.00;;;3.00;99.90;;;;;;5102231;27;20811;-68
2022/04/02 11:25:24;;;;;;;7.10;6.40;;;3.00;1.00;;;;;;5124924;27;20845;-69
2022/04/02 11:27:54;;;;;;;7.23;6.17;;;2.80;1.00;;;;;;5113921;27;20443;-69
2022/04/02 11:30:22;;;;;;;7.57;6.57;;;2.80;99.90;;;;;;5106043;27;20457;-69
2022/04/02 11:32:51;;;;;;;7.50;6.67;;;2.80;1.00;;;;;;5099887;27;20455;-69
2022/04/02 11:35:18;;;;;;;7.40;6.60;;;2.80;1.00;;;;;;5120015;27;20471;-70
2022/04/02 11:38:09;;;;;;;11.77;7.27;;;2.80;1.00;;;;;;5116237;27;20470;-70
2022/04/02 11:40:42;;;;;;;9.07;6.80;;;3.20;1.00;;;;;;5127605;27;20449;-71
2022/04/02 11:43:11;;;;;;;9.03;6.33;;;3.20;1.00;;;;;;5122855;27;20441;-71
2022/04/02 11:45:41;;;;;;;8.50;6.93;;;2.80;1.00;;;;;;5128400;27;20477;-71
2022/04/02 11:48:13;;;;;;;9.13;6.77;;;3.00;1.00;;;;;;5123965;27;20542;-70
2022/04/02 11:50:43;;;;;;;7.27;6.13;;;3.10;1.00;;;;;;5124547;27;20923;-70
2022/04/02 11:53:11;;;;;;;8.47;6.67;;;3.00;1.00;;;;;;5123140;27;20440;-70
2022/04/02 11:55:39;;;;;;;8.10;6.60;;;3.10;1.00;;;;;;5119075;27;20458;-70
2022/04/02 11:58:08;;;;;;;9.73;6.30;;;2.60;99.90;;;;;;5102290;27;20478;-69
2022/04/02 12:00:38;;;;;;;10.40;6.67;;;2.80;99.90;;;;;;5125786;27;20574;-72
2022/04/02 12:03:20;;;;;;;8.90;6.40;;;2.70;99.90;;;;;;5123329;27;20443;-70
2022/04/02 12:05:48;;;;;;;11.53;7.03;;;2.90;99.90;;;;;;5122798;27;20966;-69
2022/04/02 12:08:27;;;;;;;8.10;6.03;;;2.60;99.90;;;;;;5126439;27;20466;-70
2022/04/02 12:10:56;;;;;;;6.60;5.90;;;2.70;99.90;;;;;;5127755;27;20447;-73
2022/04/02 12:13:23;;;;;;;7.87;6.83;;;2.80;99.90;;;;;;5113860;27;20434;-72
2022/04/02 12:16:04;;;;;;;9.27;7.33;;;2.90;99.90;;;;;;5130391;27;20450;-71
2022/04/02 12:18:32;;;;;;;12.57;8.30;;;3.00;99.90;;;;;;5118001;27;20489;-72
2022/04/02 12:21:04;;;;;;;8.23;6.60;;;2.80;99.90;;;;;;5131569;27;20478;-72
2022/04/02 12:23:31;;;;;;;7.67;6.87;;;2.70;99.90;;;;;;5120385;27;20448;-71
2022/04/02 12:26:00;;;;;;;9.67;7.90;;;2.90;99.90;;;;;;5119210;28;20447;-72
2022/04/02 12:28:27;;;;;;;8.37;7.47;;;2.80;74.40;;;;;;5110142;28;20923;-72
2022/04/02 12:31:05;;;;;;;9.67;7.80;;;3.00;99.90;;;;;;5109779;28;20427;-71
2022/04/02 12:33:32;;;;;;;9.30;8.17;;;3.00;1.00;;;;;;5109416;28;20431;-72
2022/04/02 12:36:01;;;;;;;9.47;8.07;;;2.90;1.00;;;;;;5109314;28;20915;-71
2022/04/02 12:38:30;;;;;;;9.37;7.70;;;3.00;1.00;;;;;;5109593;28;20523;-71
2022/04/02 12:40:58;;;;;;;10.50;8.30;;;2.90;1.00;;;;;;5108977;28;20435;-72
2022/04/02 12:43:27;;;;;;;8.90;7.57;;;2.90;1.00;;;;;;5110957;28;20436;-72
2022/04/02 12:45:57;;;;;;;9.23;8.33;;;2.70;85.50;;;;;;5109744;28;20435;-70
2022/04/02 12:48:26;;;;;;;8.53;7.63;;;2.80;11.70;;;;;;5109969;28;20453;-71
2022/04/02 12:50:55;;;;;;;8.97;8.07;;;2.70;88.00;;;;;;5109428;28;20442;-69
2022/04/02 12:53:30;;;;;;;8.77;7.63;;;2.80;1.00;;;;;;5108592;28;20432;-70
2022/04/02 12:55:57;;;;;;;9.63;8.63;;;3.00;1.00;;;;;;5108041;28;20447;-71
2022/04/02 12:58:35;;;;;;;14.40;9.07;;;2.80;1.00;;;;;;5109888;28;20820;-72
2022/04/02 13:01:12;;;;;;;9.63;7.97;;;2.90;1.00;;;;;;5117418;28;20794;-70
2022/04/02 13:03:45;;;;;;;9.00;7.90;;;2.80;1.00;;;;;;5109318;28;20459;-71
2022/04/02 13:06:20;;;;;;;12.33;8.20;;;3.00;1.00;;;;;;5108926;28;20463;-71
2022/04/02 13:09:01;;;;;;;12.80;8.87;;;3.00;99.90;;;;;;5118084;28;20964;-71
2022/04/02 13:11:38;;;;;;;9.77;8.40;;;3.20;99.90;;;;;;5107701;28;20454;-71
2022/04/02 13:14:13;;;;;;;10.03;8.07;;;3.10;43.20;;;;;;5125219;28;20434;-71